createdAt,value
2019-01-04T00:00:34.629Z,4.80
2019-01-04T00:03:02.959Z,4.67
2019-01-04T00:05:31.232Z,5.27
2019-01-04T00:07:59.570Z,4.20
2019-01-04T00:10:27.869Z,4.80
2019-01-04T00:12:56.152Z,4.57
2019-01-04T00:15:24.435Z,4.97
2019-01-04T00:17:52.702Z,4.50
2019-01-04T00:20:21.002Z,4.63
2019-01-04T00:22:49.269Z,4.17
2019-01-04T00:25:17.551Z,3.70
2019-01-04T00:27:45.862Z,4.67
2019-01-04T00:30:14.131Z,4.90
2019-01-04T00:32:42.398Z,3.77
2019-01-04T00:35:10.715Z,3.63
2019-01-04T00:37:39.150Z,3.63
2019-01-04T00:40:09.142Z,3.80
2019-01-04T00:42:37.418Z,3.43
2019-01-04T00:45:07.530Z,3.63
2019-01-04T00:47:35.899Z,3.73
2019-01-04T00:50:06.822Z,4.17
2019-01-04T00:52:35.131Z,4.07
2019-01-04T00:55:18.750Z,4.60
2019-01-04T00:57:59.055Z,3.40
2019-01-04T01:00:48.670Z,4.53
2019-01-04T01:03:26.029Z,2.90
2019-01-04T01:06:32.457Z,3.73
2019-01-04T01:09:24.649Z,4.20
2019-01-04T01:12:11.331Z,3.57
2019-01-04T01:15:16.193Z,4.30
2019-01-04T01:18:13.281Z,5.40
2019-01-04T01:21:03.950Z,3.70
2019-01-04T01:23:51.925Z,6.87
2019-01-04T01:26:32.094Z,5.10
2019-01-04T01:29:22.289Z,6.73
2019-01-04T01:31:56.163Z,7.07
2019-01-04T01:34:44.170Z,5.70
2019-01-04T01:38:07.990Z,5.73
2019-01-04T01:41:12.619Z,4.83
2019-01-04T01:43:59.013Z,5.20
2019-01-04T01:46:39.682Z,4.27
2019-01-04T01:49:28.372Z,5.13
2019-01-04T01:52:11.666Z,5.50
2019-01-04T01:54:39.973Z,4.43
2019-01-04T01:57:08.326Z,3.50
2019-01-04T01:59:36.661Z,3.87
2019-01-04T02:02:04.971Z,3.77
2019-01-04T02:04:33.305Z,4.50
2019-01-04T02:07:01.616Z,6.57
2019-01-04T02:09:29.955Z,4.77
2019-01-04T02:11:58.218Z,4.50
2019-01-04T02:14:26.494Z,3.43
2019-01-04T02:16:54.773Z,3.80
2019-01-04T02:19:23.078Z,7.30
2019-01-04T02:21:51.423Z,6.07
2019-01-04T02:24:19.686Z,4.13
2019-01-04T02:26:47.963Z,3.97
2019-01-04T02:29:16.305Z,4.77
2019-01-04T02:31:44.571Z,7.67
2019-01-04T02:34:12.862Z,9.07
2019-01-04T02:36:41.243Z,5.27
2019-01-04T02:39:09.513Z,6.90
2019-01-04T02:41:37.853Z,4.60
2019-01-04T02:44:06.165Z,5.73
2019-01-04T02:46:34.576Z,4.10
2019-01-04T02:49:02.859Z,5.57
2019-01-04T02:51:31.196Z,3.73
2019-01-04T02:53:59.492Z,4.73
2019-01-04T02:56:27.758Z,4.43
2019-01-04T02:58:56.025Z,6.33
2019-01-04T03:01:24.345Z,6.40
2019-01-04T03:03:52.723Z,5.57
2019-01-04T03:06:21.066Z,4.20
2019-01-04T03:08:49.484Z,5.50
2019-01-04T03:11:17.753Z,5.20
2019-01-04T03:13:46.025Z,4.53
2019-01-04T03:16:14.371Z,4.13
2019-01-04T03:18:42.676Z,5.60
2019-01-04T03:21:11.046Z,5.17
2019-01-04T03:23:39.390Z,3.77
2019-01-04T03:26:07.659Z,4.23
2019-01-04T03:28:35.931Z,5.00
2019-01-04T03:31:04.208Z,4.27
2019-01-04T03:33:32.511Z,4.47
2019-01-04T03:36:00.781Z,4.47
2019-01-04T03:38:29.068Z,4.40
2019-01-04T03:40:57.416Z,4.50
2019-01-04T03:43:25.758Z,4.27
2019-01-04T03:45:54.075Z,4.37
2019-01-04T03:48:22.350Z,4.60
2019-01-04T03:50:50.618Z,4.57
2019-01-04T03:53:18.907Z,5.00
2019-01-04T03:55:47.191Z,4.20
2019-01-04T03:58:15.486Z,5.27
2019-01-04T04:00:43.838Z,5.17
2019-01-04T04:03:12.119Z,5.13
2019-01-04T04:05:40.429Z,4.23
2019-01-04T04:08:08.766Z,4.77
2019-01-04T04:10:37.046Z,5.13
2019-01-04T04:13:05.493Z,5.47
2019-01-04T04:15:33.818Z,4.97
2019-01-04T04:18:02.092Z,5.90
2019-01-04T04:20:30.389Z,5.40
2019-01-04T04:22:58.661Z,5.43
2019-01-04T04:25:26.925Z,6.23
2019-01-04T04:27:56.853Z,5.57
2019-01-04T04:30:25.223Z,5.03
2019-01-04T04:32:53.502Z,4.80
2019-01-04T04:35:21.788Z,6.00
2019-01-04T04:37:50.239Z,5.43
2019-01-04T04:40:18.510Z,5.40
2019-01-04T04:42:48.361Z,6.33
2019-01-04T04:45:16.654Z,5.53
2019-01-04T04:47:44.941Z,5.90
2019-01-04T04:50:13.284Z,13.07
2019-01-04T04:52:41.586Z,8.53
2019-01-04T04:55:09.864Z,7.33
2019-01-04T04:57:38.144Z,10.47
2019-01-04T05:00:08.183Z,8.80
2019-01-04T05:02:36.536Z,7.53
2019-01-04T05:05:05.174Z,7.63
2019-01-04T05:07:33.487Z,7.63
2019-01-04T05:10:01.784Z,8.53
2019-01-04T05:12:30.111Z,7.70
2019-01-04T05:14:58.508Z,11.87
2019-01-04T05:17:26.787Z,8.90
2019-01-04T05:19:55.072Z,11.23
2019-01-04T05:22:24.281Z,16.47
2019-01-04T05:24:52.643Z,9.17
2019-01-04T05:27:21.011Z,11.83
2019-01-04T05:29:49.373Z,8.73
2019-01-04T05:32:17.647Z,9.53
2019-01-04T05:34:45.924Z,12.93
2019-01-04T05:37:14.301Z,7.20
2019-01-04T05:39:42.565Z,7.90
2019-01-04T05:42:10.854Z,6.80
2019-01-04T05:44:39.130Z,7.60
2019-01-04T05:47:07.772Z,7.67
2019-01-04T05:49:36.036Z,8.13
2019-01-04T05:52:04.301Z,8.50
2019-01-04T05:54:32.629Z,7.67
2019-01-04T05:57:00.902Z,7.50
2019-01-04T05:59:29.178Z,7.83
2019-01-04T06:01:57.492Z,8.27
2019-01-04T06:04:25.844Z,9.40
2019-01-04T06:06:54.118Z,8.03
2019-01-04T06:09:22.474Z,8.83
2019-01-04T06:11:50.741Z,9.73
2019-01-04T06:14:19.006Z,9.90
2019-01-04T06:16:47.326Z,9.50
2019-01-04T06:19:15.611Z,10.80
2019-01-04T06:21:43.886Z,12.30
2019-01-04T06:24:12.217Z,15.53
2019-01-04T06:26:40.503Z,14.60
2019-01-04T06:29:08.818Z,12.93
2019-01-04T06:31:37.177Z,12.00
2019-01-04T06:34:05.448Z,10.60
2019-01-04T06:36:33.725Z,11.00
2019-01-04T06:39:02.040Z,12.03
2019-01-04T06:41:30.308Z,10.70
2019-01-04T06:43:58.578Z,10.97
2019-01-04T06:46:26.882Z,10.47
2019-01-04T06:48:55.161Z,10.97
2019-01-04T06:51:27.800Z,12.53
2019-01-04T06:53:53.461Z,11.37
2019-01-04T06:56:21.729Z,10.67
2019-01-04T06:58:50.023Z,11.43
2019-01-04T07:01:18.313Z,10.90
2019-01-04T07:03:46.601Z,11.40
2019-01-04T07:06:14.916Z,10.07
2019-01-04T07:08:43.194Z,11.80
2019-01-04T07:11:11.554Z,12.03
2019-01-04T07:13:39.875Z,11.80
2019-01-04T07:16:08.294Z,9.93
2019-01-04T07:18:36.585Z,10.57
2019-01-04T07:21:04.871Z,10.57
2019-01-04T07:23:33.152Z,11.07
2019-01-04T07:26:01.465Z,11.73
2019-01-04T07:28:29.809Z,12.10
2019-01-04T07:30:58.089Z,14.90
2019-01-04T07:33:26.395Z,12.27
2019-01-04T07:35:54.671Z,13.20
2019-01-04T07:38:22.942Z,14.50
2019-01-04T07:40:51.237Z,14.43
2019-01-04T07:43:19.518Z,14.57
2019-01-04T07:45:47.806Z,16.07
2019-01-04T07:48:16.099Z,14.93
2019-01-04T07:50:44.370Z,16.07
2019-01-04T07:53:12.653Z,16.40
2019-01-04T07:55:40.987Z,16.50
2019-01-04T07:58:09.253Z,16.97
2019-01-04T08:00:37.539Z,15.40
2019-01-04T08:03:07.001Z,15.53
2019-01-04T08:05:35.283Z,13.77
2019-01-04T08:08:03.563Z,13.53
2019-01-04T08:10:31.880Z,14.50
2019-01-04T08:13:00.234Z,13.97
2019-01-04T08:15:28.513Z,13.87
2019-01-04T08:17:56.810Z,12.90
2019-01-04T08:20:25.077Z,14.03
2019-01-04T08:23:12.875Z,14.47
2019-01-04T08:25:41.172Z,15.80
2019-01-04T08:28:09.579Z,15.93
2019-01-04T08:30:37.892Z,17.47
2019-01-04T08:33:06.170Z,14.57
2019-01-04T08:35:34.454Z,14.63
2019-01-04T08:38:02.816Z,13.20
2019-01-04T08:40:31.098Z,13.37
2019-01-04T08:42:59.453Z,13.10
2019-01-04T08:45:27.728Z,15.03
2019-01-04T08:47:56.000Z,13.47
2019-01-04T08:50:24.341Z,14.47
2019-01-04T08:52:52.661Z,14.23
2019-01-04T08:55:21.025Z,13.27
2019-01-04T08:57:49.342Z,13.97
2019-01-04T09:00:17.628Z,11.50
2019-01-04T09:02:45.903Z,10.47
2019-01-04T09:05:14.190Z,11.20
2019-01-04T09:07:42.466Z,11.47
2019-01-04T09:10:10.763Z,11.70
2019-01-04T09:12:39.040Z,10.57
2019-01-04T09:15:08.267Z,10.40
2019-01-04T09:17:36.577Z,10.73
2019-01-04T09:20:07.689Z,11.47
2019-01-04T09:22:35.962Z,9.40
2019-01-04T09:25:06.118Z,10.27
2019-01-04T09:27:34.465Z,10.80
2019-01-04T09:30:02.817Z,10.13
2019-01-04T09:32:31.197Z,9.90
2019-01-04T09:34:59.465Z,9.43
2019-01-04T09:37:27.741Z,8.53
2019-01-04T09:39:56.026Z,9.37
2019-01-04T09:42:24.326Z,8.77
2019-01-04T09:44:52.674Z,8.67
2019-01-04T09:47:21.015Z,8.23
2019-01-04T09:49:49.306Z,7.97
2019-01-04T09:52:17.577Z,9.20
2019-01-04T09:54:45.856Z,8.47
2019-01-04T09:57:14.124Z,8.63
2019-01-04T09:59:42.430Z,8.23
2019-01-04T10:02:10.773Z,8.13
2019-01-04T10:04:39.047Z,7.60
2019-01-04T10:07:07.337Z,9.10
2019-01-04T10:09:35.623Z,8.57
2019-01-04T10:12:03.978Z,8.93
2019-01-04T10:14:32.278Z,8.90
2019-01-04T10:17:00.612Z,8.40
2019-01-04T10:19:28.882Z,8.63
2019-01-04T10:21:57.235Z,8.77
2019-01-04T10:24:25.512Z,8.90
2019-01-04T10:26:53.879Z,8.77
2019-01-04T10:29:22.217Z,8.30
2019-01-04T10:31:50.496Z,10.03
2019-01-04T10:34:18.809Z,8.43
2019-01-04T10:36:47.907Z,7.40
2019-01-04T10:39:16.187Z,8.33
2019-01-04T10:41:44.548Z,8.43
2019-01-04T10:44:12.895Z,7.07
2019-01-04T10:46:41.266Z,7.90
2019-01-04T10:49:09.544Z,8.30
2019-01-04T10:51:37.805Z,8.53
2019-01-04T10:54:06.121Z,7.37
2019-01-04T10:56:34.399Z,7.87
2019-01-04T10:59:02.703Z,7.10
2019-01-04T11:01:30.982Z,6.93
2019-01-04T11:03:59.308Z,7.00
2019-01-04T11:06:27.624Z,7.67
2019-01-04T11:08:55.948Z,7.80
2019-01-04T11:11:24.232Z,7.43
2019-01-04T11:13:52.501Z,9.90
2019-01-04T11:16:20.777Z,8.00
2019-01-04T11:18:49.064Z,7.67
2019-01-04T11:21:17.378Z,9.17
2019-01-04T11:24:05.603Z,9.07
2019-01-04T11:26:37.306Z,9.40
2019-01-04T11:29:37.081Z,7.90
2019-01-04T11:32:17.181Z,8.00
2019-01-04T11:35:14.488Z,8.07
2019-01-04T11:38:04.084Z,8.10
2019-01-04T11:40:38.367Z,7.73
2019-01-04T11:43:15.657Z,7.40
2019-01-04T11:45:58.913Z,8.67
2019-01-04T11:48:36.221Z,9.47
2019-01-04T11:51:10.708Z,7.50
2019-01-04T11:53:39.018Z,7.70
2019-01-04T11:56:07.298Z,9.37
2019-01-04T11:58:35.575Z,12.20
2019-01-04T12:01:03.873Z,12.20
2019-01-04T12:03:32.149Z,10.17
2019-01-04T12:06:00.429Z,10.17
2019-01-04T12:08:29.293Z,9.47
2019-01-04T12:10:57.571Z,12.43
2019-01-04T12:13:25.846Z,10.03
2019-01-04T12:15:54.150Z,12.10
2019-01-04T12:18:22.430Z,11.67
2019-01-04T12:20:50.705Z,11.00
2019-01-04T12:23:19.062Z,14.97
2019-01-04T12:25:47.366Z,12.17
2019-01-04T12:28:15.656Z,12.57
2019-01-04T12:30:44.011Z,13.80
2019-01-04T12:33:12.372Z,12.17
2019-01-04T12:35:40.654Z,11.53
2019-01-04T12:38:08.947Z,11.97
2019-01-04T12:40:37.298Z,25.03
2019-01-04T12:43:05.581Z,46.63
2019-01-04T12:45:33.988Z,69.87
2019-01-04T12:48:02.276Z,21.47
2019-01-04T12:50:30.557Z,13.33
2019-01-04T12:52:58.845Z,13.90
2019-01-04T12:55:27.130Z,13.87
2019-01-04T12:57:55.410Z,10.43
2019-01-04T13:00:23.699Z,12.07
2019-01-04T13:02:51.983Z,11.83
2019-01-04T13:05:20.254Z,14.00
2019-01-04T13:07:48.543Z,11.53
2019-01-04T13:10:16.855Z,11.07
2019-01-04T13:12:45.127Z,10.80
2019-01-04T13:15:13.461Z,11.27
2019-01-04T13:17:41.742Z,10.57
2019-01-04T13:20:10.018Z,11.17
2019-01-04T13:22:38.311Z,12.43
2019-01-04T13:25:07.161Z,12.53
2019-01-04T13:27:35.442Z,11.50
2019-01-04T13:30:04.564Z,12.10
2019-01-04T13:32:32.834Z,9.50
2019-01-04T13:35:01.143Z,11.17
2019-01-04T13:37:29.415Z,9.93
2019-01-04T13:39:57.685Z,10.80
2019-01-04T13:42:26.003Z,11.43
2019-01-04T13:44:54.362Z,11.70
2019-01-04T13:47:22.637Z,11.53
2019-01-04T13:49:50.963Z,13.90
2019-01-04T13:52:19.230Z,12.07
2019-01-04T13:54:47.510Z,15.77
2019-01-04T13:57:15.810Z,13.77
2019-01-04T13:59:44.105Z,17.17
2019-01-04T14:02:12.441Z,16.00
2019-01-04T14:04:40.755Z,17.50
2019-01-04T14:07:09.038Z,17.37
2019-01-04T14:09:56.791Z,14.00
2019-01-04T14:12:25.058Z,14.37
2019-01-04T14:14:53.331Z,18.03
2019-01-04T14:17:21.608Z,19.70
2019-01-04T14:19:49.891Z,17.97
2019-01-04T14:22:18.189Z,18.77
2019-01-04T14:24:46.522Z,18.70
2019-01-04T14:27:14.825Z,18.30
2019-01-04T14:29:43.168Z,18.77
2019-01-04T14:32:11.459Z,20.00
2019-01-04T14:34:39.834Z,15.97
2019-01-04T14:37:08.117Z,15.63
2019-01-04T14:39:36.390Z,19.53
2019-01-04T14:42:04.711Z,17.00
2019-01-04T14:44:33.007Z,20.77
2019-01-04T14:47:01.277Z,19.47
2019-01-04T14:49:29.573Z,21.97
2019-01-04T14:51:57.866Z,22.10
2019-01-04T14:54:26.160Z,27.00
2019-01-04T14:56:54.521Z,20.30
2019-01-04T14:59:22.910Z,20.90
2019-01-04T15:01:51.182Z,21.77
2019-01-04T15:04:19.456Z,25.63
2019-01-04T15:06:47.831Z,23.70
2019-01-04T15:09:16.111Z,24.20
2019-01-04T15:11:44.391Z,24.67
2019-01-04T15:14:12.752Z,28.40
2019-01-04T15:16:41.046Z,26.37
2019-01-04T15:19:09.382Z,30.93
2019-01-04T15:21:37.660Z,42.90
2019-01-04T15:24:05.948Z,30.17
2019-01-04T15:26:34.282Z,49.67
2019-01-04T15:29:02.555Z,34.37
2019-01-04T15:31:30.835Z,30.03
2019-01-04T15:33:59.201Z,28.67
2019-01-04T15:36:27.475Z,29.23
2019-01-04T15:38:55.763Z,29.80
2019-01-04T15:41:24.050Z,27.23
2019-01-04T15:43:52.328Z,26.77
2019-01-04T15:46:20.623Z,27.43
2019-01-04T15:48:48.890Z,25.53
2019-01-04T15:51:17.199Z,25.30
2019-01-04T15:53:45.492Z,26.07
2019-01-04T15:56:13.768Z,25.87
2019-01-04T15:58:42.117Z,28.67
2019-01-04T16:01:10.397Z,25.97
2019-01-04T16:03:38.684Z,24.07
2019-01-04T16:06:07.462Z,21.93
2019-01-04T16:08:35.734Z,25.30
2019-01-04T16:11:04.013Z,24.93
2019-01-04T16:13:32.294Z,28.83
2019-01-04T16:16:00.750Z,25.37
2019-01-04T16:18:29.111Z,26.27
2019-01-04T16:20:57.459Z,24.33
2019-01-04T16:23:25.773Z,24.73
2019-01-04T16:25:54.037Z,24.10
2019-01-04T16:28:22.328Z,21.60
2019-01-04T16:30:50.627Z,22.57
2019-01-04T16:33:18.897Z,22.23
2019-01-04T16:35:47.182Z,22.90
2019-01-04T16:38:15.490Z,22.20
2019-01-04T16:40:43.833Z,20.47
2019-01-04T16:43:12.113Z,22.07
2019-01-04T16:45:41.296Z,22.07
2019-01-04T16:48:09.636Z,23.27
2019-01-04T16:50:37.906Z,20.80
2019-01-04T16:53:06.204Z,20.80
2019-01-04T16:55:34.546Z,21.97
2019-01-04T16:58:02.826Z,21.27
2019-01-04T17:00:31.179Z,21.07
2019-01-04T17:02:59.444Z,22.53
2019-01-04T17:05:27.722Z,23.43
2019-01-04T17:07:56.094Z,23.67
2019-01-04T17:10:24.447Z,20.43
2019-01-04T17:12:52.725Z,22.33
2019-01-04T17:15:21.098Z,24.20
2019-01-04T17:17:49.370Z,24.17
2019-01-04T17:20:17.644Z,23.30
2019-01-04T17:22:45.932Z,25.57
2019-01-04T17:25:14.202Z,25.03
2019-01-04T17:27:42.494Z,23.07
2019-01-04T17:30:10.773Z,27.67
2019-01-04T17:32:39.074Z,23.50
2019-01-04T17:35:07.359Z,26.33
2019-01-04T17:37:35.655Z,25.13
2019-01-04T17:40:05.785Z,22.50
2019-01-04T17:42:34.125Z,23.87
2019-01-04T17:45:03.560Z,22.27
2019-01-04T17:47:31.852Z,25.20
2019-01-04T17:50:00.173Z,23.43
2019-01-04T17:52:28.496Z,22.97
2019-01-04T17:54:56.797Z,21.33
2019-01-04T17:57:25.737Z,24.50
2019-01-04T17:59:54.084Z,25.33
2019-01-04T18:02:22.381Z,24.30
2019-01-04T18:04:50.761Z,22.67
2019-01-04T18:07:19.100Z,21.03
2019-01-04T18:09:47.370Z,23.17
2019-01-04T18:12:15.675Z,23.67
2019-01-04T18:14:43.955Z,21.90
2019-01-04T18:17:12.307Z,20.83
2019-01-04T18:19:40.613Z,21.47
2019-01-04T18:22:08.886Z,23.70
2019-01-04T18:24:37.163Z,22.30
2019-01-04T18:27:05.470Z,21.97
2019-01-04T18:29:33.754Z,21.77
2019-01-04T18:32:02.031Z,19.13
2019-01-04T18:34:30.370Z,21.23
2019-01-04T18:36:58.634Z,21.20
2019-01-04T18:39:26.926Z,21.53
2019-01-04T18:41:55.232Z,21.50
2019-01-04T18:44:23.591Z,23.10
2019-01-04T18:46:51.862Z,24.27
2019-01-04T18:49:20.142Z,22.27
2019-01-04T18:51:48.432Z,19.17
2019-01-04T18:54:16.778Z,21.83
2019-01-04T18:56:45.094Z,21.53
2019-01-04T18:59:13.362Z,24.30
2019-01-04T19:01:41.658Z,22.23
2019-01-04T19:04:09.994Z,25.60
2019-01-04T19:06:58.197Z,21.53
2019-01-04T19:09:26.491Z,25.83
2019-01-04T19:11:54.865Z,24.77
2019-01-04T19:14:23.166Z,26.47
2019-01-04T19:16:51.471Z,25.50
2019-01-04T19:19:19.760Z,25.43
2019-01-04T19:21:48.030Z,28.07
2019-01-04T19:24:16.365Z,47.10
2019-01-04T19:26:44.712Z,52.77
2019-01-04T19:29:13.067Z,31.33
2019-01-04T19:31:41.454Z,30.43
2019-01-04T19:34:09.805Z,30.33
2019-01-04T19:36:38.085Z,35.17
2019-01-04T19:39:06.699Z,26.50
2019-01-04T19:41:35.045Z,32.67
2019-01-04T19:44:03.320Z,36.83
2019-01-04T19:46:31.696Z,28.17
2019-01-04T19:48:59.974Z,34.23
2019-01-04T19:51:28.260Z,29.33
2019-01-04T19:53:56.595Z,28.73
2019-01-04T19:56:24.979Z,26.03
2019-01-04T19:58:53.329Z,28.37
2019-01-04T20:01:21.678Z,24.33
2019-01-04T20:03:49.991Z,30.97
2019-01-04T20:06:31.942Z,31.37
2019-01-04T20:09:34.001Z,28.03
2019-01-04T20:12:42.905Z,29.37
2019-01-04T20:15:30.478Z,30.50
2019-01-04T20:18:12.266Z,31.73
2019-01-04T20:20:44.943Z,28.00
2019-01-04T20:23:20.778Z,29.93
2019-01-04T20:25:59.526Z,28.43
2019-01-04T20:28:32.085Z,28.77
2019-01-04T20:31:11.080Z,30.57
2019-01-04T20:33:58.969Z,29.33
2019-01-04T20:36:28.880Z,30.07
2019-01-04T20:39:10.771Z,31.40
2019-01-04T20:41:40.696Z,30.60
2019-01-04T20:44:19.570Z,31.27
2019-01-04T20:46:49.494Z,32.30
2019-01-04T20:49:35.794Z,35.17
2019-01-04T20:52:05.755Z,36.53
2019-01-04T20:54:44.516Z,33.70
2019-01-04T20:57:30.584Z,33.13
2019-01-04T21:00:09.301Z,35.80
2019-01-04T21:02:45.185Z,39.33
2019-01-04T21:05:20.866Z,32.90
2019-01-04T21:07:56.495Z,39.00
2019-01-04T21:10:42.555Z,31.93
2019-01-04T21:13:18.086Z,30.07
2019-01-04T21:16:20.576Z,31.20
2019-01-04T21:19:08.479Z,42.57
2019-01-04T21:21:38.407Z,37.70
2019-01-04T21:24:14.522Z,37.57
2019-01-04T21:26:59.497Z,35.07
2019-01-04T21:29:35.262Z,36.20
2019-01-04T21:32:23.066Z,34.57
2019-01-04T21:35:01.773Z,35.67
2019-01-04T21:37:46.666Z,37.27
2019-01-04T21:40:28.441Z,39.13
2019-01-04T21:42:58.412Z,36.40
2019-01-04T21:45:36.953Z,41.43
2019-01-04T21:48:06.866Z,37.37
2019-01-04T21:50:45.673Z,35.73
2019-01-04T21:53:15.617Z,38.53
2019-01-04T21:55:48.171Z,36.83
2019-01-04T21:58:18.088Z,38.87
2019-01-04T22:00:53.892Z,38.00
2019-01-04T22:03:39.799Z,37.87
2019-01-04T22:06:09.751Z,39.70
2019-01-04T22:08:55.606Z,34.20
2019-01-04T22:11:25.513Z,37.73
2019-01-04T22:13:58.350Z,36.93
2019-01-04T22:16:31.149Z,33.10
2019-01-04T22:19:03.795Z,33.47
2019-01-04T22:21:52.172Z,37.40
2019-01-04T22:24:34.141Z,38.43
2019-01-04T22:27:13.027Z,37.00
2019-01-04T22:29:58.950Z,33.13
2019-01-04T22:32:31.652Z,34.07
2019-01-04T22:35:07.369Z,32.53
2019-01-04T22:37:37.284Z,33.30
2019-01-04T22:40:07.732Z,30.50
2019-01-04T22:42:53.895Z,32.07
2019-01-04T22:45:32.598Z,37.07
2019-01-04T22:48:05.310Z,32.77
2019-01-04T22:50:43.734Z,33.13
2019-01-04T22:53:16.365Z,33.23
2019-01-04T22:55:52.021Z,33.50
2019-01-04T22:58:22.009Z,32.13
2019-01-04T23:01:08.096Z,33.43
2019-01-04T23:03:54.183Z,31.83
2019-01-04T23:06:40.391Z,30.63
2019-01-04T23:09:16.265Z,30.47
2019-01-04T23:12:02.650Z,29.47
2019-01-04T23:14:38.167Z,27.33
2019-01-04T23:17:24.007Z,28.60
2019-01-04T23:20:08.919Z,27.40
2019-01-04T23:22:56.683Z,27.00
2019-01-04T23:25:36.520Z,26.03
2019-01-04T23:28:18.244Z,25.53
2019-01-04T23:31:04.338Z,23.33
2019-01-04T23:33:46.047Z,23.93
2019-01-04T23:36:31.995Z,21.30
2019-01-04T23:39:13.590Z,22.57
2019-01-04T23:42:01.658Z,20.13
2019-01-04T23:44:37.426Z,20.80
2019-01-04T23:47:09.937Z,19.77
2019-01-04T23:49:39.852Z,17.90
2019-01-04T23:52:09.807Z,18.33
2019-01-04T23:54:51.749Z,18.97
2019-01-04T23:57:37.701Z,17.37
